ONeal Airport


Codes: KOEA/
Name: ONeal Airport
City: Vincennes
Country: United States
Elevation: 414 ft.

Photos at ONeal Airport


   Photos courtesy of SpottingLog. You can add your own sightings and photos by signing up for a free trial today.



No photos found.

Weather at ONeal Airport


Time (UTC)DescriptionTempratureWindCloud coverageVisibilityPressureHumidity
21-Feb-2024 03:00Clear Sky8°C9 mph, S5%10000m1023hPa60%
21-Feb-2024 06:00Clear Sky7°C9 mph, S7%10000m1023hPa67%
21-Feb-2024 09:00Few Clouds5°C7 mph, S16%10000m1022hPa77%
21-Feb-2024 12:00Few Clouds5°C9 mph, S11%10000m1022hPa82%
21-Feb-2024 15:00Broken Clouds9°C13 mph, S67%10000m1021hPa74%
21-Feb-2024 18:00Broken Clouds15°C16 mph, S76%10000m1018hPa61%
21-Feb-2024 21:00Overcast Clouds16°C16 mph, S100%10000m1014hPa62%
22-Feb-2024 00:00Light Rain13°C13 mph, S100%10000m1013hPa74%
22-Feb-2024 03:00Overcast Clouds13°C18 mph, S100%10000m1011hPa81%
22-Feb-2024 06:00Overcast Clouds14°C16 mph, S100%10000m1009hPa86%
22-Feb-2024 09:00Light Rain14°C16 mph, S100%10000m1006hPa85%
22-Feb-2024 12:00Light Rain13°C16 mph, SW100%6239m1005hPa91%
22-Feb-2024 15:00Light Rain13°C18 mph, SW100%10000m1004hPa91%
22-Feb-2024 18:00Light Rain14°C18 mph, SW100%10000m1002hPa91%
22-Feb-2024 21:00Moderate Rain12°C16 mph, N100%10000m1003hPa87%
23-Feb-2024 00:00Broken Clouds10°C9 mph, NW82%10000m1005hPa86%
23-Feb-2024 03:00Broken Clouds9°C7 mph, NW51%10000m1006hPa86%
23-Feb-2024 06:00Broken Clouds8°C7 mph, NW75%10000m1006hPa87%
23-Feb-2024 09:00Broken Clouds7°C9 mph, NW63%10000m1006hPa86%
23-Feb-2024 12:00Scattered Clouds5°C9 mph, NW32%10000m1008hPa90%
23-Feb-2024 15:00Clear Sky8°C11 mph, NW1%10000m1010hPa71%
23-Feb-2024 18:00Clear Sky11°C13 mph, NW2%10000m1009hPa50%
23-Feb-2024 21:00Clear Sky12°C13 mph, NW8%10000m1008hPa44%
24-Feb-2024 00:00Few Clouds8°C7 mph, NW13%10000m1009hPa62%
24-Feb-2024 03:00Scattered Clouds6°C7 mph, W33%10000m1010hPa70%
24-Feb-2024 06:00Broken Clouds6°C7 mph, NW57%10000m1011hPa73%
24-Feb-2024 09:00Light Rain5°C7 mph, N100%10000m1012hPa83%
24-Feb-2024 12:00Overcast Clouds2°C13 mph, N99%10000m1015hPa94%
24-Feb-2024 15:00Broken Clouds2°C11 mph, NE77%10000m1018hPa74%
24-Feb-2024 18:00Broken Clouds6°C9 mph, N58%10000m1019hPa56%
24-Feb-2024 21:00Clear Sky7°C2 mph, NW7%10000m1018hPa47%
25-Feb-2024 00:00Clear Sky5°C4 mph, S6%10000m1019hPa60%
25-Feb-2024 03:00Scattered Clouds4°C7 mph, S46%10000m1019hPa74%
25-Feb-2024 06:00Few Clouds3°C9 mph, S23%10000m1018hPa81%
25-Feb-2024 09:00Clear Sky3°C13 mph, S0%10000m1016hPa83%
25-Feb-2024 12:00Clear Sky3°C16 mph, S1%10000m1014hPa85%
25-Feb-2024 15:00Broken Clouds8°C16 mph, SW82%10000m1014hPa73%
25-Feb-2024 18:00Scattered Clouds15°C20 mph, SW47%10000m1011hPa55%
25-Feb-2024 21:00Few Clouds16°C18 mph, SW23%10000m1010hPa62%
26-Feb-2024 00:00Light Rain12°C11 mph, SW49%10000m1011hPa80%